Time,TemperatureF,DewpointF,PressureIn,WindDirection,WindDirectionDegrees,WindSpeedMPH,WindSpeedGustMPH,Humidity,HourlyPrecipIn,Conditions,Clouds,dailyrainin,SoftwareType,DateUTC
2013-02-24 00:01:00,42.0,-99.9,29.80,NW,308,6.0,7.0,-999,-99.99,,,-99.99,,2013-02-24 05:01:00,
2013-02-24 00:11:00,42.0,-99.9,29.80,WNW,303,6.0,8.0,-999,-99.99,,,-99.99,,2013-02-24 05:11:00,
2013-02-24 00:22:00,42.0,-99.9,29.79,NW,312,6.0,8.0,-999,-99.99,,,-99.99,,2013-02-24 05:22:00,
2013-02-24 00:32:00,42.0,-99.9,29.80,NW,310,7.0,8.0,-999,-99.99,,,-99.99,,2013-02-24 05:32:00,
2013-02-24 00:42:00,42.0,-99.9,29.80,NW,308,6.0,7.0,-999,-99.99,,,-99.99,,2013-02-24 05:42:00,
2013-02-24 00:52:00,42.0,-99.9,29.80,NW,308,6.0,8.0,-999,-99.99,,,-99.99,,2013-02-24 05:52:00,
2013-02-24 01:02:00,42.0,-99.9,29.80,NW,310,7.0,10.0,-999,-99.99,,,-99.99,,2013-02-24 06:02:00,
2013-02-24 01:12:00,42.0,-99.9,29.81,NW,304,7.0,9.0,-999,-99.99,,,-99.99,,2013-02-24 06:12:00,
2013-02-24 01:22:00,42.0,-99.9,29.81,NW,314,7.0,9.0,-999,-99.99,,,-99.99,,2013-02-24 06:22:00,
2013-02-24 01:32:00,42.0,-99.9,29.80,NW,315,9.0,11.0,-999,-99.99,,,-99.99,,2013-02-24 06:32:00,
2013-02-24 01:42:00,41.0,-99.9,29.80,NW,317,9.0,11.0,-999,-99.99,,,-99.99,,2013-02-24 06:42:00,
2013-02-24 01:52:00,41.0,-99.9,29.79,NW,321,7.0,9.0,-999,-99.99,,,-99.99,,2013-02-24 06:52:00,
2013-02-24 02:01:00,41.0,-99.9,29.79,NW,322,8.0,9.0,-999,-99.99,,,-99.99,,2013-02-24 07:01:00,
2013-02-24 02:12:00,41.0,-99.9,29.80,NW,324,9.0,11.0,-999,-99.99,,,-99.99,,2013-02-24 07:12:00,
2013-02-24 02:22:00,41.0,-99.9,29.80,NW,325,10.0,12.0,-999,-99.99,,,-99.99,,2013-02-24 07:22:00,
2013-02-24 02:32:00,41.0,-99.9,29.80,NW,321,9.0,11.0,-999,-99.99,,,-99.99,,2013-02-24 07:32:00,
2013-02-24 02:42:00,42.0,-99.9,29.80,NW,320,10.0,12.0,-999,-99.99,,,-99.99,,2013-02-24 07:42:00,
2013-02-24 02:52:00,41.0,-99.9,29.79,NW,322,9.0,11.0,-999,-99.99,,,-99.99,,2013-02-24 07:52:00,
2013-02-24 03:01:00,41.0,-99.9,29.78,NNW,327,8.0,11.0,-999,-99.99,,,-99.99,,2013-02-24 08:01:00,
2013-02-24 03:11:00,41.0,-99.9,29.78,NW,320,8.0,9.0,-999,-99.99,,,-99.99,,2013-02-24 08:11:00,
2013-02-24 03:22:00,41.0,-99.9,29.79,NW,312,6.0,8.0,-999,-99.99,,,-99.99,,2013-02-24 08:22:00,
2013-02-24 03:32:00,42.0,-99.9,29.78,NW,313,6.0,9.0,-999,-99.99,,,-99.99,,2013-02-24 08:32:00,
2013-02-24 03:42:00,41.0,-99.9,29.79,NW,307,9.0,11.0,-999,-99.99,,,-99.99,,2013-02-24 08:42:00,
2013-02-24 03:54:00,41.0,-99.9,29.79,NW,307,9.0,12.0,-999,-99.99,,,-99.99,,2013-02-24 08:54:00,
2013-02-24 04:02:00,41.0,-99.9,29.79,NW,313,9.0,11.0,-999,-99.99,,,-99.99,,2013-02-24 09:02:00,
2013-02-24 04:11:00,41.0,-99.9,29.78,NW,322,7.0,9.0,-999,-99.99,,,-99.99,,2013-02-24 09:11:00,
2013-02-24 04:22:00,40.0,-99.9,29.78,NW,318,7.0,8.0,-999,-99.99,,,-99.99,,2013-02-24 09:22:00,
2013-02-24 04:32:00,40.0,-99.9,29.79,NW,318,9.0,11.0,-999,-99.99,,,-99.99,,2013-02-24 09:32:00,
2013-02-24 04:42:00,41.0,-99.9,29.80,WNW,302,8.0,11.0,-999,-99.99,,,-99.99,,2013-02-24 09:42:00,
2013-02-24 04:52:00,41.0,-99.9,29.80,WNW,301,7.0,10.0,-999,-99.99,,,-99.99,,2013-02-24 09:52:00,
2013-02-24 05:01:00,41.0,-99.9,29.80,NW,304,7.0,9.0,-999,-99.99,,,-99.99,,2013-02-24 10:01:00,
2013-02-24 05:11:00,40.0,-99.9,29.80,NW,314,8.0,9.0,-999,-99.99,,,-99.99,,2013-02-24 10:11:00,
2013-02-24 05:22:00,40.0,-99.9,29.80,NNW,327,9.0,11.0,-999,-99.99,,,-99.99,,2013-02-24 10:22:00,
2013-02-24 05:32:00,40.0,-99.9,29.79,NW,326,7.0,9.0,-999,-99.99,,,-99.99,,2013-02-24 10:32:00,
2013-02-24 05:42:00,39.0,-99.9,29.79,NNW,336,6.0,8.0,-999,-99.99,,,-99.99,,2013-02-24 10:42:00,
2013-02-24 05:52:00,40.0,-99.9,29.79,NNW,337,10.0,11.0,-999,-99.99,,,-99.99,,2013-02-24 10:52:00,
2013-02-24 06:01:00,40.0,-99.9,29.80,NNW,336,9.0,11.0,-999,-99.99,,,-99.99,,2013-02-24 11:01:00,
2013-02-24 06:11:00,40.0,-99.9,29.80,NNW,335,6.0,11.0,-999,-99.99,,,-99.99,,2013-02-24 11:11:00,
2013-02-24 06:22:00,40.0,-99.9,29.81,NW,316,6.0,8.0,-999,-99.99,,,-99.99,,2013-02-24 11:22:00,
2013-02-24 06:32:00,40.0,-99.9,29.81,NW,313,7.0,9.0,-999,-99.99,,,-99.99,,2013-02-24 11:32:00,
2013-02-24 06:42:00,40.0,-99.9,29.82,NW,308,9.0,11.0,-999,-99.99,,,-99.99,,2013-02-24 11:42:00,
2013-02-24 06:53:00,40.0,-99.9,29.83,NW,309,11.0,13.0,-999,-99.99,,,-99.99,,2013-02-24 11:53:00,
2013-02-24 07:02:00,40.0,-99.9,29.83,NW,305,8.0,10.0,-999,-99.99,,,-99.99,,2013-02-24 12:02:00,
2013-02-24 07:11:00,40.0,-99.9,29.84,NW,312,10.0,11.0,-999,-99.99,,,-99.99,,2013-02-24 12:11:00,
2013-02-24 07:22:00,40.0,-99.9,29.85,NW,308,10.0,13.0,-999,-99.99,,,-99.99,,2013-02-24 12:22:00,
2013-02-24 07:33:00,40.0,-99.9,29.85,WNW,302,9.0,12.0,-999,-99.99,,,-99.99,,2013-02-24 12:33:00,
2013-02-24 07:46:00,40.0,-99.9,29.86,WNW,296,8.0,11.0,-999,-99.99,,,-99.99,,2013-02-24 12:46:00,
2013-02-24 08:00:00,40.0,-99.9,29.87,WNW,299,8.0,10.0,-999,-99.99,,,-99.99,,2013-02-24 13:00:00,
2013-02-24 08:16:00,40.0,-99.9,29.86,NW,307,4.0,10.0,-999,-99.99,,,-99.99,,2013-02-24 13:16:00,
2013-02-24 08:27:00,40.0,-99.9,29.86,NW,312,5.0,6.0,-999,-99.99,,,-99.99,,2013-02-24 13:27:00,
2013-02-24 08:35:00,40.0,-99.9,29.86,NW,318,6.0,7.0,-999,-99.99,,,-99.99,,2013-02-24 13:35:00,
2013-02-24 08:46:00,40.0,-99.9,29.86,NW,313,6.0,7.0,-999,-99.99,,,-99.99,,2013-02-24 13:46:00,
2013-02-24 08:56:00,40.0,-99.9,29.86,NW,316,6.0,8.0,-999,-99.99,,,-99.99,,2013-02-24 13:56:00,
2013-02-24 09:05:00,40.0,-99.9,29.87,NW,315,7.0,9.0,-999,-99.99,,,-99.99,,2013-02-24 14:05:00,
2013-02-24 09:14:00,41.0,-99.9,29.88,NW,305,6.0,9.0,-999,-99.99,,,-99.99,,2013-02-24 14:14:00,
2013-02-24 09:25:00,41.0,-99.9,29.87,WNW,302,5.0,8.0,-999,-99.99,,,-99.99,,2013-02-24 14:25:00,
2013-02-24 09:35:00,41.0,-99.9,29.87,WNW,301,4.0,8.0,-999,-99.99,,,-99.99,,2013-02-24 14:35:00,
2013-02-24 09:46:00,41.0,-99.9,29.87,NW,317,6.0,7.0,-999,-99.99,,,-99.99,,2013-02-24 14:46:00,
2013-02-24 09:55:00,41.0,-99.9,29.87,NW,314,4.0,7.0,-999,-99.99,,,-99.99,,2013-02-24 14:55:00,
2013-02-24 10:04:00,41.0,-99.9,29.87,NW,312,5.0,6.0,-999,-99.99,,,-99.99,,2013-02-24 15:04:00,
2013-02-24 10:15:00,41.0,-99.9,29.88,NW,315,6.0,7.0,-999,-99.99,,,-99.99,,2013-02-24 15:15:00,
2013-02-24 10:24:00,42.0,-99.9,29.88,NW,321,7.0,10.0,-999,-99.99,,,-99.99,,2013-02-24 15:24:00,
2013-02-24 10:32:00,42.0,-99.9,29.88,NW,313,5.0,9.0,-999,-99.99,,,-99.99,,2013-02-24 15:32:00,
2013-02-24 10:42:00,42.0,-99.9,29.88,WNW,286,8.0,11.0,-999,-99.99,,,-99.99,,2013-02-24 15:42:00,
2013-02-24 10:53:00,43.0,-99.9,29.89,WNW,283,8.0,9.0,-999,-99.99,,,-99.99,,2013-02-24 15:53:00,
2013-02-24 11:02:00,43.0,-99.9,29.89,WNW,285,9.0,11.0,-999,-99.99,,,-99.99,,2013-02-24 16:02:00,
2013-02-24 11:12:00,43.0,-99.9,29.88,NW,314,8.0,11.0,-999,-99.99,,,-99.99,,2013-02-24 16:12:00,
2013-02-24 11:22:00,44.0,-99.9,29.89,NW,308,7.0,10.0,-999,-99.99,,,-99.99,,2013-02-24 16:22:00,
2013-02-24 11:32:00,44.0,-99.9,29.89,NW,315,9.0,11.0,-999,-99.99,,,-99.99,,2013-02-24 16:32:00,
2013-02-24 11:42:00,44.0,-99.9,29.88,NW,326,6.0,9.0,-999,-99.99,,,-99.99,,2013-02-24 16:42:00,
2013-02-24 11:52:00,44.0,-99.9,29.88,NW,321,9.0,11.0,-999,-99.99,,,-99.99,,2013-02-24 16:52:00,
2013-02-24 12:01:00,44.0,-99.9,29.88,NW,319,8.0,13.0,-999,-99.99,,,-99.99,,2013-02-24 17:01:00,
2013-02-24 12:11:00,45.0,-99.9,29.87,NW,315,9.0,12.0,-999,-99.99,,,-99.99,,2013-02-24 17:11:00,
2013-02-24 12:22:00,45.0,-99.9,29.87,NW,319,11.0,13.0,-999,-99.99,,,-99.99,,2013-02-24 17:22:00,
2013-02-24 12:32:00,46.0,-99.9,29.87,WNW,302,12.0,15.0,-999,-99.99,,,-99.99,,2013-02-24 17:32:00,
2013-02-24 12:42:00,46.0,-99.9,29.87,WNW,296,11.0,17.0,-999,-99.99,,,-99.99,,2013-02-24 17:42:00,
2013-02-24 12:53:00,47.0,-99.9,29.87,WNW,289,11.0,17.0,-999,-99.99,,,-99.99,,2013-02-24 17:53:00,
2013-02-24 13:02:00,47.0,-99.9,29.86,WNW,303,13.0,17.0,-999,-99.99,,,-99.99,,2013-02-24 18:02:00,
2013-02-24 13:12:00,47.0,-99.9,29.86,WNW,298,13.0,17.0,-999,-99.99,,,-99.99,,2013-02-24 18:12:00,
2013-02-24 13:22:00,47.0,-99.9,29.85,WNW,298,13.0,21.0,-999,-99.99,,,-99.99,,2013-02-24 18:22:00,
2013-02-24 13:32:00,47.0,-99.9,29.86,WNW,294,13.0,17.0,-999,-99.99,,,-99.99,,2013-02-24 18:32:00,
2013-02-24 13:42:00,47.0,-99.9,29.85,NW,306,13.0,18.0,-999,-99.99,,,-99.99,,2013-02-24 18:42:00,
2013-02-24 13:52:00,47.0,-99.9,29.86,NW,307,15.0,21.0,-999,-99.99,,,-99.99,,2013-02-24 18:52:00,
2013-02-24 14:01:00,47.0,-99.9,29.85,NW,309,15.0,19.0,-999,-99.99,,,-99.99,,2013-02-24 19:01:00,
2013-02-24 14:12:00,46.0,-99.9,29.86,NW,312,15.0,18.0,-999,-99.99,,,-99.99,,2013-02-24 19:12:00,
2013-02-24 14:22:00,47.0,-99.9,29.85,NW,312,13.0,17.0,-999,-99.99,,,-99.99,,2013-02-24 19:22:00,
2013-02-24 14:32:00,47.0,-99.9,29.85,NW,315,14.0,18.0,-999,-99.99,,,-99.99,,2013-02-24 19:32:00,
2013-02-24 14:42:00,47.0,-99.9,29.85,NW,312,14.0,17.0,-999,-99.99,,,-99.99,,2013-02-24 19:42:00,
2013-02-24 14:52:00,47.0,-99.9,29.85,NW,316,15.0,19.0,-999,-99.99,,,-99.99,,2013-02-24 19:52:00,
2013-02-24 15:02:00,47.0,-99.9,29.85,NW,310,16.0,20.0,-999,-99.99,,,-99.99,,2013-02-24 20:02:00,
2013-02-24 15:11:00,47.0,-99.9,29.86,NW,314,12.0,17.0,-999,-99.99,,,-99.99,,2013-02-24 20:11:00,
2013-02-24 15:22:00,47.0,-99.9,29.86,NW,309,12.0,16.0,-999,-99.99,,,-99.99,,2013-02-24 20:22:00,
2013-02-24 15:32:00,48.0,-99.9,29.86,NW,311,11.0,15.0,-999,-99.99,,,-99.99,,2013-02-24 20:32:00,
2013-02-24 15:42:00,48.0,-99.9,29.86,NW,312,12.0,14.0,-999,-99.99,,,-99.99,,2013-02-24 20:42:00,
2013-02-24 15:52:00,48.0,-99.9,29.86,NW,310,12.0,14.0,-999,-99.99,,,-99.99,,2013-02-24 20:52:00,
2013-02-24 16:02:00,48.0,-99.9,29.86,NW,312,11.0,17.0,-999,-99.99,,,-99.99,,2013-02-24 21:02:00,
2013-02-24 16:11:00,48.0,-99.9,29.86,NW,310,13.0,17.0,-999,-99.99,,,-99.99,,2013-02-24 21:11:00,
2013-02-24 16:21:00,47.0,-99.9,29.86,NW,320,11.0,13.0,-999,-99.99,,,-99.99,,2013-02-24 21:21:00,
2013-02-24 16:32:00,47.0,-99.9,29.87,NNW,327,10.0,12.0,-999,-99.99,,,-99.99,,2013-02-24 21:32:00,
2013-02-24 16:42:00,47.0,-99.9,29.87,NNW,341,15.0,17.0,-999,-99.99,,,-99.99,,2013-02-24 21:42:00,
2013-02-24 16:52:00,48.0,-99.9,29.87,NW,323,13.0,18.0,-999,-99.99,,,-99.99,,2013-02-24 21:52:00,
2013-02-24 17:01:00,48.0,-99.9,29.87,NW,322,14.0,19.0,-999,-99.99,,,-99.99,,2013-02-24 22:01:00,
2013-02-24 17:11:00,48.0,-99.9,29.88,NW,307,12.0,18.0,-999,-99.99,,,-99.99,,2013-02-24 22:11:00,
2013-02-24 17:22:00,47.0,-99.9,29.89,NW,310,13.0,17.0,-999,-99.99,,,-99.99,,2013-02-24 22:22:00,
2013-02-24 17:32:00,47.0,-99.9,29.89,NNW,328,15.0,18.0,-999,-99.99,,,-99.99,,2013-02-24 22:32:00,
2013-02-24 17:42:00,46.0,-99.9,29.90,NNW,338,17.0,21.0,-999,-99.99,,,-99.99,,2013-02-24 22:42:00,
2013-02-24 17:52:00,46.0,-99.9,29.91,NNW,331,19.0,25.0,-999,-99.99,,,-99.99,,2013-02-24 22:52:00,
2013-02-24 18:02:00,45.0,-99.9,29.91,NNW,339,23.0,26.0,-999,-99.99,,,-99.99,,2013-02-24 23:02:00,
2013-02-24 18:11:00,44.0,-99.9,29.92,NNW,341,21.0,25.0,-999,-99.99,,,-99.99,,2013-02-24 23:11:00,
2013-02-24 18:22:00,43.0,-99.9,29.94,North,350,19.0,28.0,-999,-99.99,,,-99.99,,2013-02-24 23:22:00,
2013-02-24 18:32:00,43.0,-99.9,29.94,North,355,21.0,26.0,-999,-99.99,,,-99.99,,2013-02-24 23:32:00,
2013-02-24 18:42:00,42.0,-99.9,29.95,NNW,346,18.0,21.0,-999,-99.99,,,-99.99,,2013-02-24 23:42:00,
2013-02-24 18:52:00,42.0,-99.9,29.95,NNW,342,21.0,26.0,-999,-99.99,,,-99.99,,2013-02-24 23:52:00,
2013-02-24 19:02:00,42.0,-99.9,29.96,NNW,343,17.0,23.0,-999,-99.99,,,-99.99,,2013-02-25 00:02:00,
2013-02-24 19:11:00,42.0,-99.9,29.97,NW,323,23.0,28.0,-999,-99.99,,,-99.99,,2013-02-25 00:11:00,
2013-02-24 19:22:00,42.0,-99.9,29.98,NW,320,21.0,30.0,-999,-99.99,,,-99.99,,2013-02-25 00:22:00,
2013-02-24 19:32:00,41.0,-99.9,29.99,NW,318,22.0,28.0,-999,-99.99,,,-99.99,,2013-02-25 00:32:00,
2013-02-24 19:42:00,41.0,-99.9,30.00,NW,322,17.0,25.0,-999,-99.99,,,-99.99,,2013-02-25 00:42:00,
2013-02-24 19:52:00,41.0,-99.9,30.01,NNW,328,20.0,26.0,-999,-99.99,,,-99.99,,2013-02-25 00:52:00,
2013-02-24 20:02:00,40.0,-99.9,30.01,NNW,336,21.0,26.0,-999,-99.99,,,-99.99,,2013-02-25 01:02:00,
2013-02-24 20:11:00,40.0,-99.9,30.02,NNW,332,20.0,29.0,-999,-99.99,,,-99.99,,2013-02-25 01:11:00,
2013-02-24 20:22:00,40.0,-99.9,30.03,NNW,327,17.0,24.0,-999,-99.99,,,-99.99,,2013-02-25 01:22:00,
2013-02-24 20:32:00,39.0,-99.9,30.03,NNW,332,19.0,27.0,-999,-99.99,,,-99.99,,2013-02-25 01:32:00,
2013-02-24 20:42:00,39.0,-99.9,30.04,NNW,329,17.0,24.0,-999,-99.99,,,-99.99,,2013-02-25 01:42:00,
2013-02-24 20:52:00,39.0,-99.9,30.05,NNW,339,23.0,32.0,-999,-99.99,,,-99.99,,2013-02-25 01:52:00,
2013-02-24 21:01:00,38.0,-99.9,30.05,NNW,332,20.0,28.0,-999,-99.99,,,-99.99,,2013-02-25 02:01:00,
2013-02-24 21:11:00,38.0,-99.9,30.06,NNW,337,19.0,28.0,-999,-99.99,,,-99.99,,2013-02-25 02:11:00,
2013-02-24 21:22:00,38.0,-99.9,30.06,NW,323,17.0,22.0,-999,-99.99,,,-99.99,,2013-02-25 02:22:00,
2013-02-24 21:32:00,38.0,-99.9,30.07,NW,326,17.0,21.0,-999,-99.99,,,-99.99,,2013-02-25 02:32:00,
2013-02-24 21:42:00,38.0,-99.9,30.07,NNW,329,18.0,22.0,-999,-99.99,,,-99.99,,2013-02-25 02:42:00,
2013-02-24 21:52:00,38.0,-99.9,30.08,NW,323,15.0,21.0,-999,-99.99,,,-99.99,,2013-02-25 02:52:00,
2013-02-24 22:02:00,37.0,-99.9,30.08,NW,321,16.0,23.0,-999,-99.99,,,-99.99,,2013-02-25 03:02:00,
2013-02-24 22:11:00,37.0,-99.9,30.08,NW,320,21.0,26.0,-999,-99.99,,,-99.99,,2013-02-25 03:11:00,
2013-02-24 22:21:00,37.0,-99.9,30.08,NW,324,17.0,22.0,-999,-99.99,,,-99.99,,2013-02-25 03:21:00,
2013-02-24 22:32:00,37.0,-99.9,30.08,NW,322,17.0,21.0,-999,-99.99,,,-99.99,,2013-02-25 03:32:00,
2013-02-24 22:42:00,37.0,-99.9,30.08,NW,326,17.0,23.0,-999,-99.99,,,-99.99,,2013-02-25 03:42:00,
2013-02-24 22:52:00,37.0,-99.9,30.09,NNW,328,19.0,22.0,-999,-99.99,,,-99.99,,2013-02-25 03:52:00,
2013-02-24 23:02:00,37.0,-99.9,30.08,NW,326,17.0,24.0,-999,-99.99,,,-99.99,,2013-02-25 04:02:00,
2013-02-24 23:11:00,37.0,-99.9,30.09,NW,326,18.0,24.0,-999,-99.99,,,-99.99,,2013-02-25 04:11:00,
2013-02-24 23:22:00,37.0,-99.9,30.08,NW,324,18.0,24.0,-999,-99.99,,,-99.99,,2013-02-25 04:22:00,
2013-02-24 23:32:00,37.0,-99.9,30.09,NW,322,14.0,21.0,-999,-99.99,,,-99.99,,2013-02-25 04:32:00,
2013-02-24 23:42:00,36.0,-99.9,30.09,NW,315,11.0,15.0,-999,-99.99,,,-99.99,,2013-02-25 04:42:00,
2013-02-24 23:52:00,36.0,-99.9,30.09,NW,317,11.0,14.0,-999,-99.99,,,-99.99,,2013-02-25 04:52:00,